sensor_id;sensor_type;location;lat;lon;timestamp;pressure;altitude;pressure_sealevel;temperature;humidity
61018;BME280;48171;51.550;5.434;2022-07-29T00:00:09;101663.13;;;18.15;57.29
61018;BME280;48171;51.550;5.434;2022-07-29T00:02:36;101661.47;;;18.09;57.88
61018;BME280;48171;51.550;5.434;2022-07-29T00:05:02;101662.47;;;18.05;57.30
61018;BME280;48171;51.550;5.434;2022-07-29T00:07:28;101663.28;;;18.09;57.24
61018;BME280;48171;51.550;5.434;2022-07-29T00:09:53;101656.25;;;18.05;57.96
61018;BME280;48171;51.550;5.434;2022-07-29T00:12:21;101657.09;;;18.05;58.18
61018;BME280;48171;51.550;5.434;2022-07-29T00:14:46;101655.34;;;18.06;57.90
61018;BME280;48171;51.550;5.434;2022-07-29T00:17:12;101656.22;;;18.06;58.23
61018;BME280;48171;51.550;5.434;2022-07-29T00:19:37;101650.91;;;18.05;59.96
61018;BME280;48171;51.550;5.434;2022-07-29T00:22:02;101657.13;;;18.04;59.24
61018;BME280;48171;51.550;5.434;2022-07-29T00:24:28;101650.94;;;18.02;59.23
61018;BME280;48171;51.550;5.434;2022-07-29T00:26:53;101652.78;;;17.99;58.81
61018;BME280;48171;51.550;5.434;2022-07-29T00:29:18;101651.06;;;17.97;59.33
61018;BME280;48171;51.550;5.434;2022-07-29T00:31:44;101644.88;;;17.95;59.25
61018;BME280;48171;51.550;5.434;2022-07-29T00:34:09;101642.25;;;17.93;59.09
61018;BME280;48171;51.550;5.434;2022-07-29T00:36:55;101643.19;;;17.92;59.40
61018;BME280;48171;51.550;5.434;2022-07-29T00:39:20;101652.06;;;17.93;58.82
61018;BME280;48171;51.550;5.434;2022-07-29T00:41:45;101658.28;;;17.93;59.44
61018;BME280;48171;51.550;5.434;2022-07-29T00:44:10;101661.97;;;17.89;59.03
61018;BME280;48171;51.550;5.434;2022-07-29T00:46:36;101669.81;;;17.95;59.20
61018;BME280;48171;51.550;5.434;2022-07-29T00:49:01;101670.03;;;17.88;59.94
61018;BME280;48171;51.550;5.434;2022-07-29T00:51:27;101685.94;;;17.94;60.28
61018;BME280;48171;51.550;5.434;2022-07-29T00:53:52;101695.69;;;17.95;60.54
61018;BME280;48171;51.550;5.434;2022-07-29T00:56:18;101693.13;;;17.90;60.74
61018;BME280;48171;51.550;5.434;2022-07-29T00:58:46;101699.38;;;17.89;61.20
61018;BME280;48171;51.550;5.434;2022-07-29T01:01:12;101711.06;;;17.85;60.77
61018;BME280;48171;51.550;5.434;2022-07-29T01:03:37;101698.63;;;17.84;60.24
61018;BME280;48171;51.550;5.434;2022-07-29T01:06:03;101692.41;;;17.84;61.09
61018;BME280;48171;51.550;5.434;2022-07-29T01:08:28;101684.38;;;17.82;62.30
61018;BME280;48171;51.550;5.434;2022-07-29T01:10:54;101680.88;;;17.80;63.98
61018;BME280;48171;51.550;5.434;2022-07-29T01:13:20;101674.69;;;17.78;63.11
61018;BME280;48171;51.550;5.434;2022-07-29T01:15:50;101661.28;;;17.79;63.20
61018;BME280;48171;51.550;5.434;2022-07-29T01:18:22;101627.44;;;17.78;63.56
61018;BME280;48171;51.550;5.434;2022-07-29T01:21:04;101622.94;;;17.80;62.62
61018;BME280;48171;51.550;5.434;2022-07-29T01:31:06;101620.47;;;17.71;62.68
61018;BME280;48171;51.550;5.434;2022-07-29T01:33:38;101606.31;;;17.68;63.60
61018;BME280;48171;51.550;5.434;2022-07-29T01:36:32;101593.88;;;17.67;62.79
61018;BME280;48171;51.550;5.434;2022-07-29T01:39:06;101590.38;;;17.63;62.58
61018;BME280;48171;51.550;5.434;2022-07-29T01:41:34;101573.56;;;17.59;62.85
61018;BME280;48171;51.550;5.434;2022-07-29T01:44:16;101583.41;;;17.57;61.82
61018;BME280;48171;51.550;5.434;2022-07-29T01:46:49;101576.25;;;17.59;62.14
61018;BME280;48171;51.550;5.434;2022-07-29T01:49:18;101571.88;;;17.55;62.27
61018;BME280;48171;51.550;5.434;2022-07-29T01:52:00;101572.78;;;17.54;62.60
61018;BME280;48171;51.550;5.434;2022-07-29T01:54:41;101571.97;;;17.51;62.80
61018;BME280;48171;51.550;5.434;2022-07-29T01:57:09;101570.28;;;17.47;63.01
61018;BME280;48171;51.550;5.434;2022-07-29T01:59:37;101567.75;;;17.42;63.06
61018;BME280;48171;51.550;5.434;2022-07-29T02:02:04;101565.06;;;17.42;63.59
61018;BME280;48171;51.550;5.434;2022-07-29T02:04:31;101577.56;;;17.42;63.62
61018;BME280;48171;51.550;5.434;2022-07-29T02:07:01;101575.75;;;17.42;63.49
61018;BME280;48171;51.550;5.434;2022-07-29T02:09:29;101579.31;;;17.43;63.28
61018;BME280;48171;51.550;5.434;2022-07-29T02:11:55;101584.72;;;17.41;63.72
61018;BME280;48171;51.550;5.434;2022-07-29T02:14:23;101574.88;;;17.42;64.71
61018;BME280;48171;51.550;5.434;2022-07-29T02:16:51;101566.19;;;17.33;64.81
61018;BME280;48171;51.550;5.434;2022-07-29T02:19:18;101557.25;;;17.33;65.27
61018;BME280;48171;51.550;5.434;2022-07-29T02:21:45;101561.75;;;17.32;65.29
61018;BME280;48171;51.550;5.434;2022-07-29T02:24:12;101557.34;;;17.30;65.06
61018;BME280;48171;51.550;5.434;2022-07-29T02:26:40;101559.06;;;17.32;64.59
61018;BME280;48171;51.550;5.434;2022-07-29T02:29:06;101561.75;;;17.32;63.91
61018;BME280;48171;51.550;5.434;2022-07-29T02:31:34;101567.09;;;17.31;63.86
61018;BME280;48171;51.550;5.434;2022-07-29T02:34:02;101569.75;;;17.32;64.16
61018;BME280;48171;51.550;5.434;2022-07-29T02:36:29;101573.38;;;17.30;63.54
61018;BME280;48171;51.550;5.434;2022-07-29T02:38:56;101571.66;;;17.27;64.98
61018;BME280;48171;51.550;5.434;2022-07-29T02:44:13;101557.47;;;17.25;64.72
61018;BME280;48171;51.550;5.434;2022-07-29T02:46:45;101562.00;;;17.22;64.84
61018;BME280;48171;51.550;5.434;2022-07-29T02:49:33;101560.16;;;17.25;64.00
61018;BME280;48171;51.550;5.434;2022-07-29T02:52:51;101549.50;;;17.22;64.57
61018;BME280;48171;51.550;5.434;2022-07-29T02:55:02;101554.00;;;17.22;64.53
61018;BME280;48171;51.550;5.434;2022-07-29T02:57:38;101557.63;;;17.19;64.94
61018;BME280;48171;51.550;5.434;2022-07-29T03:00:07;101560.34;;;17.16;65.26
61018;BME280;48171;51.550;5.434;2022-07-29T03:02:36;101569.22;;;17.16;65.35
61018;BME280;48171;51.550;5.434;2022-07-29T03:05:04;101576.34;;;17.17;65.54
61018;BME280;48171;51.550;5.434;2022-07-29T03:07:32;101578.16;;;17.15;66.02
61018;BME280;48171;51.550;5.434;2022-07-29T03:09:59;101581.81;;;17.11;66.47
61018;BME280;48171;51.550;5.434;2022-07-29T03:12:25;101573.84;;;17.08;66.77
61018;BME280;48171;51.550;5.434;2022-07-29T03:14:52;101561.50;;;17.04;67.70
61018;BME280;48171;51.550;5.434;2022-07-29T03:17:18;101573.91;;;17.07;67.33
61018;BME280;48171;51.550;5.434;2022-07-29T03:19:44;101573.13;;;17.02;67.82
61018;BME280;48171;51.550;5.434;2022-07-29T03:22:10;101568.81;;;16.94;69.07
61018;BME280;48171;51.550;5.434;2022-07-29T03:24:36;101571.63;;;16.88;69.24
61018;BME280;48171;51.550;5.434;2022-07-29T03:27:03;101565.50;;;16.85;68.79
61018;BME280;48171;51.550;5.434;2022-07-29T03:29:29;101573.50;;;16.85;69.25
61018;BME280;48171;51.550;5.434;2022-07-29T03:31:55;101575.34;;;16.79;68.66
61018;BME280;48171;51.550;5.434;2022-07-29T03:34:21;101575.34;;;16.81;68.05
61018;BME280;48171;51.550;5.434;2022-07-29T03:36:47;101569.13;;;16.79;67.93
61018;BME280;48171;51.550;5.434;2022-07-29T03:39:17;101578.13;;;16.75;68.01
61018;BME280;48171;51.550;5.434;2022-07-29T03:41:44;101574.53;;;16.76;68.16
61018;BME280;48171;51.550;5.434;2022-07-29T03:44:12;101579.84;;;16.77;67.49
61018;BME280;48171;51.550;5.434;2022-07-29T03:46:39;101573.53;;;16.80;67.11
61018;BME280;48171;51.550;5.434;2022-07-29T03:49:06;101570.00;;;16.79;67.09
61018;BME280;48171;51.550;5.434;2022-07-29T03:51:33;101576.28;;;16.78;67.46
61018;BME280;48171;51.550;5.434;2022-07-29T03:54:03;101579.78;;;16.80;67.38
61018;BME280;48171;51.550;5.434;2022-07-29T03:56:29;101576.88;;;16.93;65.71
61018;BME280;48171;51.550;5.434;2022-07-29T03:58:57;101565.59;;;16.78;67.53
61018;BME280;48171;51.550;5.434;2022-07-29T04:01:24;101565.63;;;16.77;67.61
61018;BME280;48171;51.550;5.434;2022-07-29T04:03:50;101563.84;;;16.76;68.14
61018;BME280;48171;51.550;5.434;2022-07-29T04:06:16;101566.59;;;16.73;67.74
61018;BME280;48171;51.550;5.434;2022-07-29T04:08:41;101567.50;;;16.72;67.80
61018;BME280;48171;51.550;5.434;2022-07-29T04:11:06;101570.19;;;16.70;68.00
61018;BME280;48171;51.550;5.434;2022-07-29T04:13:32;101566.66;;;16.68;67.96
61018;BME280;48171;51.550;5.434;2022-07-29T04:15:58;101567.63;;;16.66;68.26
61018;BME280;48171;51.550;5.434;2022-07-29T04:18:24;101560.53;;;16.65;68.86
61018;BME280;48171;51.550;5.434;2022-07-29T04:20:49;101555.28;;;16.60;68.98
61018;BME280;48171;51.550;5.434;2022-07-29T04:23:15;101564.25;;;16.57;69.19
61018;BME280;48171;51.550;5.434;2022-07-29T04:25:41;101565.09;;;16.58;68.86
61018;BME280;48171;51.550;5.434;2022-07-29T04:28:07;101558.91;;;16.56;69.62
61018;BME280;48171;51.550;5.434;2022-07-29T04:30:35;101566.03;;;16.57;68.59
61018;BME280;48171;51.550;5.434;2022-07-29T04:33:02;101566.94;;;16.56;68.40
61018;BME280;48171;51.550;5.434;2022-07-29T04:35:29;101572.25;;;16.57;68.91
61018;BME280;48171;51.550;5.434;2022-07-29T04:37:54;101576.63;;;16.60;68.91
61018;BME280;48171;51.550;5.434;2022-07-29T04:40:20;101570.41;;;16.59;69.58
61018;BME280;48171;51.550;5.434;2022-07-29T04:42:45;101576.63;;;16.60;69.27
61018;BME280;48171;51.550;5.434;2022-07-29T04:45:11;101581.13;;;16.58;69.37
61018;BME280;48171;51.550;5.434;2022-07-29T04:47:36;101581.13;;;16.58;69.22
61018;BME280;48171;51.550;5.434;2022-07-29T04:50:02;101581.16;;;16.56;69.34
61018;BME280;48171;51.550;5.434;2022-07-29T04:52:27;101574.06;;;16.55;70.42
61018;BME280;48171;51.550;5.434;2022-07-29T04:54:53;101578.56;;;16.52;70.38
61018;BME280;48171;51.550;5.434;2022-07-29T04:57:18;101580.38;;;16.51;70.32
61018;BME280;48171;51.550;5.434;2022-07-29T04:59:43;101581.34;;;16.47;70.62
61018;BME280;48171;51.550;5.434;2022-07-29T05:02:09;101598.28;;;16.46;69.94
61018;BME280;48171;51.550;5.434;2022-07-29T05:04:35;101605.38;;;16.46;69.75
61018;BME280;48171;51.550;5.434;2022-07-29T05:07:00;101615.06;;;16.50;70.29
61018;BME280;48171;51.550;5.434;2022-07-29T05:09:25;101615.06;;;16.51;70.39
61018;BME280;48171;51.550;5.434;2022-07-29T05:11:50;101616.88;;;16.48;70.92
61018;BME280;48171;51.550;5.434;2022-07-29T05:14:16;101624.03;;;16.47;71.28
61018;BME280;48171;51.550;5.434;2022-07-29T05:16:41;101632.00;;;16.49;70.57
61018;BME280;48171;51.550;5.434;2022-07-29T05:19:06;101626.66;;;16.49;70.99
61018;BME280;48171;51.550;5.434;2022-07-29T05:21:32;101621.31;;;16.50;71.26
61018;BME280;48171;51.550;5.434;2022-07-29T05:23:57;101617.78;;;16.48;70.23
61018;BME280;48171;51.550;5.434;2022-07-29T05:26:22;101623.16;;;16.45;70.89
61018;BME280;48171;51.550;5.434;2022-07-29T05:28:48;101625.84;;;16.45;70.49
61018;BME280;48171;51.550;5.434;2022-07-29T05:31:14;101624.97;;;16.45;70.49
61018;BME280;48171;51.550;5.434;2022-07-29T05:33:40;101634.69;;;16.47;70.88
61018;BME280;48171;51.550;5.434;2022-07-29T05:36:06;101624.88;;;16.49;70.66
61018;BME280;48171;51.550;5.434;2022-07-29T05:38:32;101618.63;;;16.50;70.50
61018;BME280;48171;51.550;5.434;2022-07-29T05:40:58;101617.69;;;16.54;70.36
61018;BME280;48171;51.550;5.434;2022-07-29T05:43:24;101622.03;;;16.58;70.26
61018;BME280;48171;51.550;5.434;2022-07-29T05:45:50;101628.22;;;16.60;70.76
61018;BME280;48171;51.550;5.434;2022-07-29T05:48:15;101633.47;;;16.64;71.12
61018;BME280;48171;51.550;5.434;2022-07-29T05:50:40;101634.31;;;16.67;70.62
61018;BME280;48171;51.550;5.434;2022-07-29T05:53:06;101634.22;;;16.72;70.32
61018;BME280;48171;51.550;5.434;2022-07-29T05:55:31;101635.06;;;16.74;70.54
61018;BME280;48171;51.550;5.434;2022-07-29T05:57:56;101629.72;;;16.74;70.27
61018;BME280;48171;51.550;5.434;2022-07-29T06:00:21;101625.22;;;16.76;71.23
61018;BME280;48171;51.550;5.434;2022-07-29T06:02:47;101621.66;;;16.77;70.03
61018;BME280;48171;51.550;5.434;2022-07-29T06:05:12;101621.66;;;16.78;70.96
61018;BME280;48171;51.550;5.434;2022-07-29T06:07:38;101617.13;;;16.82;70.80
61018;BME280;48171;51.550;5.434;2022-07-29T06:10:04;101623.38;;;16.83;70.33
61018;BME280;48171;51.550;5.434;2022-07-29T06:12:29;101628.59;;;16.87;70.29
61018;BME280;48171;51.550;5.434;2022-07-29T06:14:55;101625.94;;;16.87;70.35
61018;BME280;48171;51.550;5.434;2022-07-29T06:17:20;101628.53;;;16.90;70.87
61018;BME280;48171;51.550;5.434;2022-07-29T06:19:45;101629.38;;;16.92;70.17
61018;BME280;48171;51.550;5.434;2022-07-29T06:22:11;101630.22;;;16.94;70.79
61018;BME280;48171;51.550;5.434;2022-07-29T06:24:36;101640.00;;;16.95;70.27
61018;BME280;48171;51.550;5.434;2022-07-29T06:27:03;101635.53;;;16.96;70.41
61018;BME280;48171;51.550;5.434;2022-07-29T06:29:28;101628.38;;;16.98;70.32
61018;BME280;48171;51.550;5.434;2022-07-29T06:31:53;101625.66;;;17.01;70.06
61018;BME280;48171;51.550;5.434;2022-07-29T06:34:19;101622.94;;;17.03;70.67
61018;BME280;48171;51.550;5.434;2022-07-29T06:36:44;101625.53;;;17.06;70.66
61018;BME280;48171;51.550;5.434;2022-07-29T06:39:09;101624.59;;;17.08;70.46
61018;BME280;48171;51.550;5.434;2022-07-29T06:41:35;101627.25;;;17.10;70.06
61018;BME280;48171;51.550;5.434;2022-07-29T06:44:00;101630.75;;;17.12;69.32
61018;BME280;48171;51.550;5.434;2022-07-29T06:46:26;101629.88;;;17.11;70.65
61018;BME280;48171;51.550;5.434;2022-07-29T06:48:52;101629.84;;;17.13;70.65
61018;BME280;48171;51.550;5.434;2022-07-29T06:51:18;101636.84;;;17.18;69.36
61018;BME280;48171;51.550;5.434;2022-07-29T06:53:43;101639.44;;;17.22;69.79
61018;BME280;48171;51.550;5.434;2022-07-29T06:56:09;101630.50;;;17.23;69.53
61018;BME280;48171;51.550;5.434;2022-07-29T06:58:35;101639.44;;;17.23;70.75
61018;BME280;48171;51.550;5.434;2022-07-29T07:01:03;101648.31;;;17.24;70.06
61018;BME280;48171;51.550;5.434;2022-07-29T07:03:28;101640.28;;;17.25;69.78
61018;BME280;48171;51.550;5.434;2022-07-29T07:05:54;101642.00;;;17.26;69.40
61018;BME280;48171;51.550;5.434;2022-07-29T07:08:20;101655.34;;;17.28;69.80
61018;BME280;48171;51.550;5.434;2022-07-29T07:10:46;101649.16;;;17.26;69.17
61018;BME280;48171;51.550;5.434;2022-07-29T07:13:11;101656.34;;;17.22;69.17
61018;BME280;48171;51.550;5.434;2022-07-29T07:15:37;101646.63;;;17.18;69.22
61018;BME280;48171;51.550;5.434;2022-07-29T07:18:03;101646.59;;;17.21;69.17
61018;BME280;48171;51.550;5.434;2022-07-29T07:20:29;101648.34;;;17.20;69.39
61018;BME280;48171;51.550;5.434;2022-07-29T07:22:54;101647.47;;;17.22;69.85
61018;BME280;48171;51.550;5.434;2022-07-29T07:25:19;101650.13;;;17.22;70.73
61018;BME280;48171;51.550;5.434;2022-07-29T07:27:45;101648.41;;;17.19;70.53
61018;BME280;48171;51.550;5.434;2022-07-29T07:30:11;101646.66;;;17.16;70.71
61018;BME280;48171;51.550;5.434;2022-07-29T07:32:37;101658.19;;;17.18;70.98
61018;BME280;48171;51.550;5.434;2022-07-29T07:35:03;101653.69;;;17.20;71.57
61018;BME280;48171;51.550;5.434;2022-07-29T07:37:29;101650.97;;;17.24;71.93
61018;BME280;48171;51.550;5.434;2022-07-29T07:39:54;101650.03;;;17.26;71.45
61018;BME280;48171;51.550;5.434;2022-07-29T07:42:19;101651.69;;;17.32;70.13
61018;BME280;48171;51.550;5.434;2022-07-29T07:44:45;101656.94;;;17.35;70.50
61018;BME280;48171;51.550;5.434;2022-07-29T07:47:11;101654.19;;;17.39;71.21
61018;BME280;48171;51.550;5.434;2022-07-29T07:49:36;101647.91;;;17.40;69.90
61018;BME280;48171;51.550;5.434;2022-07-29T07:52:02;101650.63;;;17.39;70.55
61018;BME280;48171;51.550;5.434;2022-07-29T07:54:27;101646.16;;;17.41;70.55
61018;BME280;48171;51.550;5.434;2022-07-29T07:56:53;101658.59;;;17.42;70.84
61018;BME280;48171;51.550;5.434;2022-07-29T07:59:18;101665.69;;;17.43;70.80
61018;BME280;48171;51.550;5.434;2022-07-29T08:01:43;101664.75;;;17.46;71.08
61018;BME280;48171;51.550;5.434;2022-07-29T08:04:09;101660.25;;;17.48;70.42
61018;BME280;48171;51.550;5.434;2022-07-29T08:06:34;101664.72;;;17.47;70.13
61018;BME280;48171;51.550;5.434;2022-07-29T08:09:01;101655.75;;;17.50;69.73
61018;BME280;48171;51.550;5.434;2022-07-29T08:11:27;101661.97;;;17.50;69.09
61018;BME280;48171;51.550;5.434;2022-07-29T08:13:52;101661.91;;;17.53;69.41
61018;BME280;48171;51.550;5.434;2022-07-29T08:16:18;101667.09;;;17.59;72.44
61018;BME280;48171;51.550;5.434;2022-07-29T08:18:45;101669.69;;;17.63;71.52
61018;BME280;48171;51.550;5.434;2022-07-29T08:21:11;101674.91;;;17.67;72.01
61018;BME280;48171;51.550;5.434;2022-07-29T08:23:36;101657.94;;;17.70;72.02
61018;BME280;48171;51.550;5.434;2022-07-29T08:26:11;101664.13;;;17.73;70.71
61018;BME280;48171;51.550;5.434;2022-07-29T08:28:41;101666.66;;;17.78;70.75
61018;BME280;48171;51.550;5.434;2022-07-29T08:31:09;101659.56;;;17.77;69.69
61018;BME280;48171;51.550;5.434;2022-07-29T08:33:35;101664.81;;;17.82;69.19
61018;BME280;48171;51.550;5.434;2022-07-29T08:36:00;101670.03;;;17.88;69.48
61018;BME280;48171;51.550;5.434;2022-07-29T08:38:25;101665.44;;;17.93;68.90
61018;BME280;48171;51.550;5.434;2022-07-29T08:40:52;101662.75;;;17.94;69.24
61018;BME280;48171;51.550;5.434;2022-07-29T08:43:18;101668.78;;;18.03;68.24
61018;BME280;48171;51.550;5.434;2022-07-29T08:45:48;101671.28;;;18.09;67.11
61018;BME280;48171;51.550;5.434;2022-07-29T08:48:16;101672.94;;;18.14;67.98
61018;BME280;48171;51.550;5.434;2022-07-29T08:50:42;101670.97;;;18.21;67.95
61018;BME280;48171;51.550;5.434;2022-07-29T08:53:11;101668.13;;;18.29;68.46
61018;BME280;48171;51.550;5.434;2022-07-29T08:55:45;101665.28;;;18.35;67.78
61018;BME280;48171;51.550;5.434;2022-07-29T08:58:11;101667.78;;;18.41;67.65
61018;BME280;48171;51.550;5.434;2022-07-29T09:00:41;101670.25;;;18.49;66.84
61018;BME280;48171;51.550;5.434;2022-07-29T09:03:08;101672.75;;;18.56;67.22
61018;BME280;48171;51.550;5.434;2022-07-29T09:05:34;101667.13;;;18.66;68.72
61018;BME280;48171;51.550;5.434;2022-07-29T09:08:00;101675.81;;;18.74;66.54
61018;BME280;48171;51.550;5.434;2022-07-29T09:10:26;101664.03;;;18.83;67.41
61018;BME280;48171;51.550;5.434;2022-07-29T09:12:54;101667.28;;;18.92;67.92
61018;BME280;48171;51.550;5.434;2022-07-29T09:15:19;101661.69;;;19.02;68.26
61018;BME280;48171;51.550;5.434;2022-07-29T09:17:47;101658.69;;;19.12;68.00
61018;BME280;48171;51.550;5.434;2022-07-29T09:20:16;101660.22;;;19.21;67.85
61018;BME280;48171;51.550;5.434;2022-07-29T09:22:41;101664.28;;;19.34;69.89
61018;BME280;48171;51.550;5.434;2022-07-29T09:25:08;101669.41;;;19.42;66.11
61018;BME280;48171;51.550;5.434;2022-07-29T09:27:33;101671.91;;;19.48;66.25
61018;BME280;48171;51.550;5.434;2022-07-29T09:30:01;101672.44;;;19.59;67.83
61018;BME280;48171;51.550;5.434;2022-07-29T09:32:27;101676.63;;;19.68;67.07
61018;BME280;48171;51.550;5.434;2022-07-29T09:35:16;101679.94;;;19.78;65.60
61018;BME280;48171;51.550;5.434;2022-07-29T09:37:43;101679.78;;;19.83;64.94
61018;BME280;48171;51.550;5.434;2022-07-29T09:40:21;101677.72;;;19.91;66.48
61018;BME280;48171;51.550;5.434;2022-07-29T09:42:47;101679.22;;;19.99;65.86
61018;BME280;48171;51.550;5.434;2022-07-29T09:45:29;101686.94;;;20.10;64.35
61018;BME280;48171;51.550;5.434;2022-07-29T09:47:55;101673.31;;;20.16;63.27
61018;BME280;48171;51.550;5.434;2022-07-29T09:50:35;101682.81;;;20.27;63.89
61018;BME280;48171;51.550;5.434;2022-07-29T09:53:00;101679.94;;;20.31;63.34
61018;BME280;48171;51.550;5.434;2022-07-29T09:55:25;101673.41;;;20.40;64.70
61018;BME280;48171;51.550;5.434;2022-07-29T09:57:51;101675.75;;;20.49;62.99
61018;BME280;48171;51.550;5.434;2022-07-29T10:00:18;101674.66;;;20.55;61.84
61018;BME280;48171;51.550;5.434;2022-07-29T10:02:46;101679.03;;;20.59;62.96
61018;BME280;48171;51.550;5.434;2022-07-29T10:05:25;101677.03;;;20.64;62.07
61018;BME280;48171;51.550;5.434;2022-07-29T10:07:51;101667.84;;;20.71;64.08
61018;BME280;48171;51.550;5.434;2022-07-29T10:10:31;101672.06;;;20.78;61.37
61018;BME280;48171;51.550;5.434;2022-07-29T10:13:08;101666.53;;;20.83;61.85
61018;BME280;48171;51.550;5.434;2022-07-29T10:15:37;101674.53;;;20.85;60.99
61018;BME280;48171;51.550;5.434;2022-07-29T10:18:06;101663.94;;;20.80;57.96
61018;BME280;48171;51.550;5.434;2022-07-29T10:20:32;101670.03;;;20.85;59.01
61018;BME280;48171;51.550;5.434;2022-07-29T10:22:58;101667.16;;;20.90;60.02
61018;BME280;48171;51.550;5.434;2022-07-29T10:25:24;101669.53;;;20.99;60.23
61018;BME280;48171;51.550;5.434;2022-07-29T10:27:50;101673.81;;;21.05;60.31
61018;BME280;48171;51.550;5.434;2022-07-29T10:30:17;101672.03;;;21.04;57.37
61018;BME280;48171;51.550;5.434;2022-07-29T10:43:54;101659.66;;;21.47;57.72
61018;BME280;48171;51.550;5.434;2022-07-29T10:46:20;101660.53;;;21.47;57.13
61018;BME280;48171;51.550;5.434;2022-07-29T10:49:06;101667.94;;;21.64;59.36
61018;BME280;48171;51.550;5.434;2022-07-29T11:05:19;101654.72;;;22.02;58.21
61018;BME280;48171;51.550;5.434;2022-07-29T11:10:38;101652.44;;;22.13;55.43
61018;BME280;48171;51.550;5.434;2022-07-29T11:13:04;101646.78;;;22.20;54.80
61018;BME280;48171;51.550;5.434;2022-07-29T11:15:56;101638.59;;;22.23;56.98
61018;BME280;48171;51.550;5.434;2022-07-29T11:18:22;101649.88;;;22.32;55.85
61018;BME280;48171;51.550;5.434;2022-07-29T11:20:49;101647.19;;;22.32;53.07
61018;BME280;48171;51.550;5.434;2022-07-29T11:23:27;101647.84;;;22.37;54.98
61018;BME280;48171;51.550;5.434;2022-07-29T11:31:39;101649.72;;;22.56;55.61
61018;BME280;48171;51.550;5.434;2022-07-29T11:39:45;101651.22;;;22.63;54.10
61018;BME280;48171;51.550;5.434;2022-07-29T11:47:38;101648.94;;;22.74;50.83
61018;BME280;48171;51.550;5.434;2022-07-29T11:50:11;101647.03;;;22.76;52.27
61018;BME280;48171;51.550;5.434;2022-07-29T11:52:47;101644.06;;;22.83;51.66
61018;BME280;48171;51.550;5.434;2022-07-29T11:55:18;101647.34;;;22.89;52.05
61018;BME280;48171;51.550;5.434;2022-07-29T11:57:53;101648.00;;;22.94;52.66
61018;BME280;48171;51.550;5.434;2022-07-29T12:00:24;101650.44;;;23.01;50.70
61018;BME280;48171;51.550;5.434;2022-07-29T12:02:49;101646.81;;;23.02;50.66
61018;BME280;48171;51.550;5.434;2022-07-29T12:05:15;101649.22;;;23.08;51.01
61018;BME280;48171;51.550;5.434;2022-07-29T12:07:41;101645.59;;;23.09;51.75
61018;BME280;48171;51.550;5.434;2022-07-29T12:10:08;101649.88;;;23.13;51.30
61018;BME280;48171;51.550;5.434;2022-07-29T12:12:34;101650.69;;;23.15;50.27
61018;BME280;48171;51.550;5.434;2022-07-29T12:15:14;101645.00;;;23.21;51.67
61018;BME280;48171;51.550;5.434;2022-07-29T12:17:42;101641.06;;;23.28;50.44
61018;BME280;48171;51.550;5.434;2022-07-29T12:20:08;101647.19;;;23.32;49.96
61018;BME280;48171;51.550;5.434;2022-07-29T12:22:37;101652.28;;;23.38;52.96
61018;BME280;48171;51.550;5.434;2022-07-29T12:25:05;101653.03;;;23.42;49.49
61018;BME280;48171;51.550;5.434;2022-07-29T12:27:31;101647.25;;;23.49;51.78
61018;BME280;48171;51.550;5.434;2022-07-29T12:29:58;101642.44;;;23.56;48.17
61018;BME280;48171;51.550;5.434;2022-07-29T12:32:54;101647.53;;;23.62;51.30
61018;BME280;48171;51.550;5.434;2022-07-29T12:35:20;101657.22;;;23.66;50.86
61018;BME280;48171;51.550;5.434;2022-07-29T12:37:47;101646.50;;;23.65;47.76
61018;BME280;48171;51.550;5.434;2022-07-29T12:40:16;101656.97;;;23.71;50.22
61018;BME280;48171;51.550;5.434;2022-07-29T12:43:05;101645.09;;;23.75;50.01
61018;BME280;48171;51.550;5.434;2022-07-29T12:45:31;101648.31;;;23.83;50.11
61018;BME280;48171;51.550;5.434;2022-07-29T12:47:57;101650.06;;;23.84;47.99
61018;BME280;48171;51.550;5.434;2022-07-29T12:50:22;101649.91;;;23.87;49.18
61018;BME280;48171;51.550;5.434;2022-07-29T12:52:48;101648.25;;;23.85;47.02
61018;BME280;48171;51.550;5.434;2022-07-29T12:55:13;101643.31;;;23.93;47.88
61018;BME280;48171;51.550;5.434;2022-07-29T12:57:50;101653.19;;;23.94;46.61
61018;BME280;48171;51.550;5.434;2022-07-29T13:00:22;101641.13;;;24.01;46.83
61018;BME280;48171;51.550;5.434;2022-07-29T13:02:55;101638.41;;;24.01;45.17
61018;BME280;48171;51.550;5.434;2022-07-29T13:05:21;101639.00;;;24.08;48.77
61018;BME280;48171;51.550;5.434;2022-07-29T13:07:47;101641.44;;;24.12;46.84
61018;BME280;48171;51.550;5.434;2022-07-29T13:10:17;101642.97;;;24.18;49.42
61018;BME280;48171;51.550;5.434;2022-07-29T13:13:09;101640.47;;;24.13;48.04
61018;BME280;48171;51.550;5.434;2022-07-29T13:15:42;101640.50;;;23.96;46.57
61018;BME280;48171;51.550;5.434;2022-07-29T13:18:30;101648.53;;;23.98;48.86
61018;BME280;48171;51.550;5.434;2022-07-29T13:20:57;101643.59;;;24.06;48.95
61018;BME280;48171;51.550;5.434;2022-07-29T13:23:35;101648.59;;;24.13;47.66
61018;BME280;48171;51.550;5.434;2022-07-29T13:26:08;101644.94;;;24.14;46.92
61018;BME280;48171;51.550;5.434;2022-07-29T13:28:34;101645.50;;;24.21;47.11
61018;BME280;48171;51.550;5.434;2022-07-29T13:31:00;101645.97;;;24.29;46.46
61018;BME280;48171;51.550;5.434;2022-07-29T13:33:25;101640.19;;;24.37;47.39
61018;BME280;48171;51.550;5.434;2022-07-29T13:35:51;101639.25;;;24.38;48.15
61018;BME280;48171;51.550;5.434;2022-07-29T13:38:16;101643.53;;;24.42;46.37
61018;BME280;48171;51.550;5.434;2022-07-29T13:40:42;101645.56;;;24.37;47.46
61018;BME280;48171;51.550;5.434;2022-07-29T13:43:11;101646.38;;;24.22;48.58
61018;BME280;48171;51.550;5.434;2022-07-29T13:45:36;101634.28;;;24.11;47.98
61018;BME280;48171;51.550;5.434;2022-07-29T13:48:02;101648.13;;;24.23;49.53